Giatto, West Virginia
Current Conditions -  °F | °C
As of 9:52 AM on Sunday 23 Nov 2014 (Local Time) from KBLF Reporting Station
Clear Clear  
Wind Chill: 51°   Ceiling: Unl
Heat Index: 51°   Visibility: 10mi
Dew Point: 39°   Wind: 14mph
Humidity: 63%   Direction: 160°SSE
Pressure: 30.13"   Gusts: NA
Location:  37.4544°N, 81.2833°W
Report Text: KBLF 231452Z AUTO 16012KT 10SM CLR 11/04 A3013 RMK AO2 SLP197 T01060039 58008
Loading
Personal Weather Stations






























Interactive Weather Map New forecast layout! Learn more

10-Day Weather Forecast

Advertisements
Track Severe Weather on mobile